sensor_id;sensor_type;location;lat;lon;timestamp;pressure;altitude;pressure_sealevel;temperature;humidity
74798;BME280;63326;45.088;7.658;2023-03-14T00:00:51;97822.28;;;9.94;85.20
74798;BME280;63326;45.088;7.658;2023-03-14T00:03:18;97772.34;;;9.80;84.89
74798;BME280;63326;45.088;7.658;2023-03-14T00:05:44;97767.00;;;9.80;84.15
74798;BME280;63326;45.088;7.658;2023-03-14T00:08:11;97769.13;;;9.91;83.77
74798;BME280;63326;45.088;7.658;2023-03-14T00:10:38;97746.81;;;9.77;84.93
74798;BME280;63326;45.088;7.658;2023-03-14T00:13:05;97731.06;;;9.55;84.70
74798;BME280;63326;45.088;7.658;2023-03-14T00:15:35;97770.06;;;9.77;84.52
74798;BME280;63326;45.088;7.658;2023-03-14T00:18:02;97754.78;;;9.64;84.50
74798;BME280;63326;45.088;7.658;2023-03-14T00:20:29;97787.63;;;9.86;84.92
74798;BME280;63326;45.088;7.658;2023-03-14T00:22:55;97758.38;;;9.85;84.96
74798;BME280;63326;45.088;7.658;2023-03-14T00:25:22;97753.44;;;9.81;85.86
74798;BME280;63326;45.088;7.658;2023-03-14T00:27:52;97750.19;;;9.93;86.43
74798;BME280;63326;45.088;7.658;2023-03-14T00:30:19;97750.81;;;9.95;85.65
74798;BME280;63326;45.088;7.658;2023-03-14T00:32:46;97744.63;;;9.94;85.47
74798;BME280;63326;45.088;7.658;2023-03-14T00:35:12;97676.78;;;9.74;84.82
74798;BME280;63326;45.088;7.658;2023-03-14T00:37:39;97696.19;;;9.82;85.67
74798;BME280;63326;45.088;7.658;2023-03-14T00:40:06;97677.63;;;9.74;84.81
74798;BME280;63326;45.088;7.658;2023-03-14T00:42:34;97686.53;;;9.95;85.27
74798;BME280;63326;45.088;7.658;2023-03-14T00:45:01;97682.81;;;9.89;84.57
74798;BME280;63326;45.088;7.658;2023-03-14T00:47:27;97680.94;;;9.83;85.03
74798;BME280;63326;45.088;7.658;2023-03-14T00:49:54;97686.28;;;9.76;85.46
74798;BME280;63326;45.088;7.658;2023-03-14T00:52:20;97697.81;;;9.77;85.33
74798;BME280;63326;45.088;7.658;2023-03-14T00:54:47;97699.84;;;9.75;85.56
74798;BME280;63326;45.088;7.658;2023-03-14T00:57:14;97702.56;;;9.81;85.67
74798;BME280;63326;45.088;7.658;2023-03-14T00:59:40;97676.34;;;9.70;85.68
74798;BME280;63326;45.088;7.658;2023-03-14T01:02:07;97690.00;;;9.82;85.08
74798;BME280;63326;45.088;7.658;2023-03-14T01:04:34;97660.69;;;9.67;85.28
74798;BME280;63326;45.088;7.658;2023-03-14T01:07:01;97650.03;;;9.74;84.94
74798;BME280;63326;45.088;7.658;2023-03-14T01:09:27;97678.06;;;9.85;85.57
74798;BME280;63326;45.088;7.658;2023-03-14T01:11:54;97681.31;;;9.73;85.80
74798;BME280;63326;45.088;7.658;2023-03-14T01:14:22;97671.78;;;9.58;85.92
74798;BME280;63326;45.088;7.658;2023-03-14T01:16:49;97690.97;;;9.61;85.61
74798;BME280;63326;45.088;7.658;2023-03-14T01:19:15;97709.66;;;9.55;85.93
74798;BME280;63326;45.088;7.658;2023-03-14T01:21:42;97778.53;;;9.80;85.03
74798;BME280;63326;45.088;7.658;2023-03-14T01:24:11;97775.09;;;9.52;85.50
74798;BME280;63326;45.088;7.658;2023-03-14T01:26:38;97780.31;;;9.32;86.12
74798;BME280;63326;45.088;7.658;2023-03-14T01:29:06;97781.91;;;9.27;87.17
74798;BME280;63326;45.088;7.658;2023-03-14T01:31:35;97800.09;;;9.38;87.56
74798;BME280;63326;45.088;7.658;2023-03-14T01:34:02;97786.56;;;9.46;87.98
74798;BME280;63326;45.088;7.658;2023-03-14T01:36:28;97734.78;;;9.26;87.53
74798;BME280;63326;45.088;7.658;2023-03-14T01:38:59;97715.31;;;9.38;87.02
74798;BME280;63326;45.088;7.658;2023-03-14T01:41:26;97691.91;;;9.40;87.82
74798;BME280;63326;45.088;7.658;2023-03-14T01:43:56;97625.97;;;9.26;87.07
74798;BME280;63326;45.088;7.658;2023-03-14T01:46:31;97677.75;;;9.53;86.47
74798;BME280;63326;45.088;7.658;2023-03-14T01:52:29;97644.78;;;9.46;87.39
74798;BME280;63326;45.088;7.658;2023-03-14T01:55:09;97639.84;;;9.49;86.59
74798;BME280;63326;45.088;7.658;2023-03-14T01:57:41;97614.94;;;9.42;86.00
74798;BME280;63326;45.088;7.658;2023-03-14T02:00:13;97604.88;;;9.58;86.24
74798;BME280;63326;45.088;7.658;2023-03-14T02:03:04;97589.06;;;9.63;86.18
74798;BME280;63326;45.088;7.658;2023-03-14T02:05:36;97566.41;;;9.52;86.04
74798;BME280;63326;45.088;7.658;2023-03-14T02:08:20;97549.09;;;9.55;86.34
74798;BME280;63326;45.088;7.658;2023-03-14T02:11:01;97516.56;;;9.44;86.80
74798;BME280;63326;45.088;7.658;2023-03-14T02:14:03;97516.16;;;9.47;86.19
74798;BME280;63326;45.088;7.658;2023-03-14T02:16:49;97494.09;;;9.39;85.73
74798;BME280;63326;45.088;7.658;2023-03-14T02:22:22;97501.34;;;9.45;85.97
74798;BME280;63326;45.088;7.658;2023-03-14T02:25:08;97517.19;;;9.53;87.53
74798;BME280;63326;45.088;7.658;2023-03-14T02:27:36;97488.72;;;9.19;87.10
74798;BME280;63326;45.088;7.658;2023-03-14T02:30:04;97568.03;;;9.53;86.02
74798;BME280;63326;45.088;7.658;2023-03-14T02:32:34;97597.63;;;9.38;86.60
74798;BME280;63326;45.088;7.658;2023-03-14T02:35:10;97605.63;;;9.38;85.66
74798;BME280;63326;45.088;7.658;2023-03-14T02:37:46;97602.13;;;9.38;86.58
74798;BME280;63326;45.088;7.658;2023-03-14T02:40:14;97584.03;;;9.40;86.74
74798;BME280;63326;45.088;7.658;2023-03-14T02:42:42;97571.72;;;9.45;86.54
74798;BME280;63326;45.088;7.658;2023-03-14T02:48:13;97622.34;;;9.47;86.08
74798;BME280;63326;45.088;7.658;2023-03-14T02:50:41;97610.94;;;9.25;85.53
74798;BME280;63326;45.088;7.658;2023-03-14T02:53:08;97637.16;;;9.43;84.58
74798;BME280;63326;45.088;7.658;2023-03-14T02:55:35;97642.22;;;9.24;85.38
74798;BME280;63326;45.088;7.658;2023-03-14T02:58:08;97624.63;;;9.09;85.78
74798;BME280;63326;45.088;7.658;2023-03-14T03:00:35;97616.69;;;9.22;87.03
74798;BME280;63326;45.088;7.658;2023-03-14T03:03:04;97594.28;;;9.23;86.74
74798;BME280;63326;45.088;7.658;2023-03-14T03:05:32;97594.28;;;9.23;87.46
74798;BME280;63326;45.088;7.658;2023-03-14T03:07:59;97626.41;;;9.36;86.52
74798;BME280;63326;45.088;7.658;2023-03-14T03:10:27;97609.09;;;9.26;86.64
74798;BME280;63326;45.088;7.658;2023-03-14T03:12:55;97624.78;;;9.35;86.32
74798;BME280;63326;45.088;7.658;2023-03-14T03:15:24;97600.66;;;9.29;86.43
74798;BME280;63326;45.088;7.658;2023-03-14T03:17:51;97593.81;;;9.19;86.86
74798;BME280;63326;45.088;7.658;2023-03-14T03:20:19;97587.66;;;9.12;87.05
74798;BME280;63326;45.088;7.658;2023-03-14T03:22:46;97550.38;;;9.04;87.42
74798;BME280;63326;45.088;7.658;2023-03-14T03:25:12;97558.66;;;9.09;85.76
74798;BME280;63326;45.088;7.658;2023-03-14T03:27:39;97571.19;;;9.15;86.39
74798;BME280;63326;45.088;7.658;2023-03-14T03:30:08;97546.53;;;9.20;85.84
74798;BME280;63326;45.088;7.658;2023-03-14T03:32:35;97515.25;;;9.14;85.80
74798;BME280;63326;45.088;7.658;2023-03-14T03:35:03;97502.69;;;9.14;86.14
74798;BME280;63326;45.088;7.658;2023-03-14T03:37:34;97521.03;;;9.24;86.53
74798;BME280;63326;45.088;7.658;2023-03-14T03:40:03;97508.66;;;9.10;86.75
74798;BME280;63326;45.088;7.658;2023-03-14T03:42:34;97542.63;;;9.22;87.44
74798;BME280;63326;45.088;7.658;2023-03-14T03:45:02;97559.72;;;9.21;86.38
74798;BME280;63326;45.088;7.658;2023-03-14T03:47:31;97575.16;;;9.26;86.92
74798;BME280;63326;45.088;7.658;2023-03-14T03:49:58;97555.34;;;9.14;85.94
74798;BME280;63326;45.088;7.658;2023-03-14T03:52:24;97594.03;;;9.18;86.52
74798;BME280;63326;45.088;7.658;2023-03-14T03:54:51;97595.06;;;9.10;86.79
74798;BME280;63326;45.088;7.658;2023-03-14T03:57:18;97591.34;;;9.11;86.88
74798;BME280;63326;45.088;7.658;2023-03-14T03:59:45;97553.88;;;9.05;87.11
74798;BME280;63326;45.088;7.658;2023-03-14T04:02:12;97580.28;;;9.21;86.29
74798;BME280;63326;45.088;7.658;2023-03-14T04:04:39;97555.97;;;9.16;87.19
74798;BME280;63326;45.088;7.658;2023-03-14T04:07:06;97527.22;;;9.24;87.10
74798;BME280;63326;45.088;7.658;2023-03-14T04:09:33;97535.88;;;9.33;86.57
74798;BME280;63326;45.088;7.658;2023-03-14T04:12:08;97515.47;;;9.26;86.79
74798;BME280;63326;45.088;7.658;2023-03-14T04:14:51;97517.38;;;9.32;85.70
74798;BME280;63326;45.088;7.658;2023-03-14T04:17:20;97531.56;;;9.32;85.81
74798;BME280;63326;45.088;7.658;2023-03-14T04:19:48;97522.28;;;9.28;85.85
74798;BME280;63326;45.088;7.658;2023-03-14T04:22:20;97503.16;;;9.38;85.93
74798;BME280;63326;45.088;7.658;2023-03-14T04:24:49;97505.63;;;9.33;85.91
74798;BME280;63326;45.088;7.658;2023-03-14T04:27:17;97535.22;;;9.24;85.67
74798;BME280;63326;45.088;7.658;2023-03-14T04:29:45;97545.53;;;9.21;85.27
74798;BME280;63326;45.088;7.658;2023-03-14T04:32:15;97547.16;;;9.29;85.45
74798;BME280;63326;45.088;7.658;2023-03-14T04:34:42;97524.72;;;9.16;84.47
74798;BME280;63326;45.088;7.658;2023-03-14T04:37:09;97514.47;;;9.20;84.42
74798;BME280;63326;45.088;7.658;2023-03-14T04:39:40;97516.09;;;9.28;85.12
74798;BME280;63326;45.088;7.658;2023-03-14T04:42:14;97502.91;;;9.19;84.78
74798;BME280;63326;45.088;7.658;2023-03-14T04:44:41;97507.84;;;9.16;85.32
74798;BME280;63326;45.088;7.658;2023-03-14T04:47:10;97509.09;;;9.20;85.61
74798;BME280;63326;45.088;7.658;2023-03-14T04:49:38;97508.66;;;9.16;85.87
74798;BME280;63326;45.088;7.658;2023-03-14T04:52:07;97496.56;;;9.20;86.15
74798;BME280;63326;45.088;7.658;2023-03-14T04:54:35;97501.28;;;9.25;86.31
74798;BME280;63326;45.088;7.658;2023-03-14T04:57:02;97478.84;;;9.13;86.38
74798;BME280;63326;45.088;7.658;2023-03-14T04:59:31;97485.88;;;9.20;87.26
74798;BME280;63326;45.088;7.658;2023-03-14T05:02:07;97474.31;;;9.13;87.27
74798;BME280;63326;45.088;7.658;2023-03-14T05:04:42;97483.88;;;8.88;87.05
74798;BME280;63326;45.088;7.658;2023-03-14T05:07:29;97485.09;;;8.79;87.85
74798;BME280;63326;45.088;7.658;2023-03-14T05:10:07;97495.75;;;8.72;87.67
74798;BME280;63326;45.088;7.658;2023-03-14T05:12:53;97494.53;;;8.75;88.01
74798;BME280;63326;45.088;7.658;2023-03-14T05:15:38;97504.00;;;8.77;87.88
74798;BME280;63326;45.088;7.658;2023-03-14T05:18:24;97490.03;;;8.82;87.84
74798;BME280;63326;45.088;7.658;2023-03-14T05:21:04;97494.78;;;8.80;87.36
74798;BME280;63326;45.088;7.658;2023-03-14T05:24:02;97490.88;;;8.82;87.39
74798;BME280;63326;45.088;7.658;2023-03-14T05:26:49;97465.78;;;8.83;87.23
74798;BME280;63326;45.088;7.658;2023-03-14T05:29:36;97463.78;;;8.92;86.88
74798;BME280;63326;45.088;7.658;2023-03-14T05:32:20;97452.88;;;8.93;87.15
74798;BME280;63326;45.088;7.658;2023-03-14T05:35:14;97460.72;;;9.08;86.61
74798;BME280;63326;45.088;7.658;2023-03-14T05:38:06;97441.00;;;9.09;87.28
74798;BME280;63326;45.088;7.658;2023-03-14T05:40:52;97398.59;;;8.93;87.36
74798;BME280;63326;45.088;7.658;2023-03-14T05:43:41;97435.03;;;9.14;84.22
74798;BME280;63326;45.088;7.658;2023-03-14T05:46:43;97424.75;;;9.24;84.80
74798;BME280;63326;45.088;7.658;2023-03-14T05:49:39;97420.66;;;9.21;84.58
74798;BME280;63326;45.088;7.658;2023-03-14T05:52:44;97431.13;;;9.23;84.79
74798;BME280;63326;45.088;7.658;2023-03-14T05:55:30;97442.84;;;9.29;84.99
74798;BME280;63326;45.088;7.658;2023-03-14T05:58:23;97427.22;;;9.26;84.38
74798;BME280;63326;45.088;7.658;2023-03-14T06:00:55;97441.63;;;9.38;84.16
74798;BME280;63326;45.088;7.658;2023-03-14T06:03:37;97418.81;;;9.22;84.37
74798;BME280;63326;45.088;7.658;2023-03-14T06:06:05;97437.50;;;9.29;83.86
74798;BME280;63326;45.088;7.658;2023-03-14T06:08:32;97432.81;;;9.31;84.75
74798;BME280;63326;45.088;7.658;2023-03-14T06:10:59;97436.72;;;9.41;84.54
74798;BME280;63326;45.088;7.658;2023-03-14T06:13:29;97411.81;;;9.34;84.57
74798;BME280;63326;45.088;7.658;2023-03-14T06:15:56;97421.47;;;9.48;84.42
74798;BME280;63326;45.088;7.658;2023-03-14T06:18:22;97400.09;;;9.35;84.51
74798;BME280;63326;45.088;7.658;2023-03-14T06:20:53;97435.28;;;9.52;84.50
74798;BME280;63326;45.088;7.658;2023-03-14T06:23:24;97413.06;;;9.51;84.85
74798;BME280;63326;45.088;7.658;2023-03-14T06:25:52;97425.00;;;9.56;84.19
74798;BME280;63326;45.088;7.658;2023-03-14T06:28:21;97427.25;;;9.52;84.30
74798;BME280;63326;45.088;7.658;2023-03-14T06:30:55;97411.22;;;9.52;84.22
74798;BME280;63326;45.088;7.658;2023-03-14T06:33:22;97422.09;;;9.57;84.30
74798;BME280;63326;45.088;7.658;2023-03-14T06:35:49;97433.81;;;9.69;83.72
74798;BME280;63326;45.088;7.658;2023-03-14T06:38:16;97419.84;;;9.74;83.85
74798;BME280;63326;45.088;7.658;2023-03-14T06:40:43;97414.06;;;9.84;83.61
74798;BME280;63326;45.088;7.658;2023-03-14T06:43:12;97409.31;;;9.86;83.60
74798;BME280;63326;45.088;7.658;2023-03-14T06:45:42;97432.38;;;10.00;82.75
74798;BME280;63326;45.088;7.658;2023-03-14T06:48:09;97437.31;;;10.03;82.42
74798;BME280;63326;45.088;7.658;2023-03-14T06:50:45;97405.44;;;9.81;82.00
74798;BME280;63326;45.088;7.658;2023-03-14T06:53:12;97428.47;;;10.02;82.13
74798;BME280;63326;45.088;7.658;2023-03-14T06:55:41;97407.03;;;9.89;82.44
74798;BME280;63326;45.088;7.658;2023-03-14T06:58:10;97436.25;;;10.10;82.56
74798;BME280;63326;45.088;7.658;2023-03-14T07:00:41;97444.91;;;10.19;82.39
74798;BME280;63326;45.088;7.658;2023-03-14T07:03:12;97431.75;;;10.04;81.86
74798;BME280;63326;45.088;7.658;2023-03-14T07:05:42;97426.81;;;10.01;82.41
74798;BME280;63326;45.088;7.658;2023-03-14T07:08:09;97455.44;;;10.14;82.22
74798;BME280;63326;45.088;7.658;2023-03-14T07:10:36;97406.47;;;9.74;83.03
74798;BME280;63326;45.088;7.658;2023-03-14T07:13:05;97450.91;;;9.95;82.99
74798;BME280;63326;45.088;7.658;2023-03-14T07:15:36;97446.59;;;9.94;83.11
74798;BME280;63326;45.088;7.658;2023-03-14T07:18:07;97471.06;;;10.10;82.96
74798;BME280;63326;45.088;7.658;2023-03-14T07:20:33;97453.16;;;10.11;82.92
74798;BME280;63326;45.088;7.658;2023-03-14T07:23:01;97465.53;;;10.25;82.71
74798;BME280;63326;45.088;7.658;2023-03-14T07:25:49;97444.94;;;10.26;81.83
74798;BME280;63326;45.088;7.658;2023-03-14T07:28:19;97476.00;;;10.53;80.95
74798;BME280;63326;45.088;7.658;2023-03-14T07:30:47;97472.66;;;10.58;80.64
74798;BME280;63326;45.088;7.658;2023-03-14T07:33:20;97479.59;;;10.79;79.95
74798;BME280;63326;45.088;7.658;2023-03-14T07:35:48;97479.41;;;11.18;79.77
74798;BME280;63326;45.088;7.658;2023-03-14T07:38:16;97436.44;;;11.57;77.94
74798;BME280;63326;45.088;7.658;2023-03-14T07:41:09;97461.47;;;12.25;75.75
74798;BME280;63326;45.088;7.658;2023-03-14T07:43:44;97449.78;;;12.75;75.14
74798;BME280;63326;45.088;7.658;2023-03-14T07:46:10;97454.03;;;13.19;75.10
74798;BME280;63326;45.088;7.658;2023-03-14T07:48:37;97433.63;;;13.41;69.99
74798;BME280;63326;45.088;7.658;2023-03-14T07:51:04;97454.13;;;13.54;70.65
74798;BME280;63326;45.088;7.658;2023-03-14T07:53:31;97435.31;;;13.24;69.13
74798;BME280;63326;45.088;7.658;2023-03-14T07:55:57;97483.66;;;13.61;68.40
74798;BME280;63326;45.088;7.658;2023-03-14T07:58:24;97435.03;;;13.55;67.58
74798;BME280;63326;45.088;7.658;2023-03-14T08:00:52;97466.16;;;13.81;67.86
74798;BME280;63326;45.088;7.658;2023-03-14T08:03:19;97469.34;;;14.02;65.58
74798;BME280;63326;45.088;7.658;2023-03-14T08:05:50;97442.84;;;14.10;64.02
74798;BME280;63326;45.088;7.658;2023-03-14T08:08:17;97456.09;;;14.35;62.58
74798;BME280;63326;45.088;7.658;2023-03-14T08:10:45;97479.31;;;14.60;62.73
74798;BME280;63326;45.088;7.658;2023-03-14T08:13:13;97479.59;;;14.98;62.96
74798;BME280;63326;45.088;7.658;2023-03-14T08:15:39;97462.53;;;15.38;60.52
74798;BME280;63326;45.088;7.658;2023-03-14T08:18:06;97441.34;;;15.75;59.97
74798;BME280;63326;45.088;7.658;2023-03-14T08:20:33;97437.88;;;16.30;58.88
74798;BME280;63326;45.088;7.658;2023-03-14T08:23:00;97434.34;;;16.47;54.96
74798;BME280;63326;45.088;7.658;2023-03-14T08:25:28;97445.84;;;16.97;54.83
74798;BME280;63326;45.088;7.658;2023-03-14T08:27:55;97452.31;;;17.18;52.57
74798;BME280;63326;45.088;7.658;2023-03-14T08:30:22;97436.03;;;16.91;52.25
74798;BME280;63326;45.088;7.658;2023-03-14T08:32:49;97438.50;;;17.47;51.53
74798;BME280;63326;45.088;7.658;2023-03-14T08:35:18;97454.03;;;18.10;51.06
74798;BME280;63326;45.088;7.658;2023-03-14T08:37:45;97426.94;;;18.16;48.89
74798;BME280;63326;45.088;7.658;2023-03-14T08:40:13;97412.50;;;17.19;50.46
74798;BME280;63326;45.088;7.658;2023-03-14T08:42:40;97452.69;;;17.05;51.54
74798;BME280;63326;45.088;7.658;2023-03-14T08:45:07;97439.25;;;17.37;49.60
74798;BME280;63326;45.088;7.658;2023-03-14T08:47:34;97458.41;;;17.31;50.49
74798;BME280;63326;45.088;7.658;2023-03-14T08:50:01;97456.41;;;17.21;49.07
74798;BME280;63326;45.088;7.658;2023-03-14T08:52:27;97464.38;;;16.67;51.05
74798;BME280;63326;45.088;7.658;2023-03-14T08:54:54;97456.69;;;16.59;51.05
74798;BME280;63326;45.088;7.658;2023-03-14T08:57:20;97459.31;;;16.15;52.57
74798;BME280;63326;45.088;7.658;2023-03-14T08:59:48;97469.50;;;15.79;54.37
74798;BME280;63326;45.088;7.658;2023-03-14T09:02:14;97471.22;;;15.69;53.96
74798;BME280;63326;45.088;7.658;2023-03-14T09:04:41;97463.03;;;15.64;53.72
74798;BME280;63326;45.088;7.658;2023-03-14T09:07:08;97458.47;;;15.98;54.02
74798;BME280;63326;45.088;7.658;2023-03-14T09:09:34;97456.66;;;16.20;53.30
74798;BME280;63326;45.088;7.658;2023-03-14T09:12:01;97459.31;;;16.54;51.28
74798;BME280;63326;45.088;7.658;2023-03-14T09:14:28;97447.16;;;16.18;51.68
74798;BME280;63326;45.088;7.658;2023-03-14T09:16:55;97444.03;;;15.92;52.86
74798;BME280;63326;45.088;7.658;2023-03-14T09:19:22;97466.28;;;15.94;53.63
74798;BME280;63326;45.088;7.658;2023-03-14T09:21:48;97462.31;;;15.68;55.08
74798;BME280;63326;45.088;7.658;2023-03-14T09:24:16;97471.00;;;15.59;55.85
74798;BME280;63326;45.088;7.658;2023-03-14T09:26:43;97463.22;;;15.91;54.47
74798;BME280;63326;45.088;7.658;2023-03-14T09:29:09;97470.19;;;16.20;53.83
74798;BME280;63326;45.088;7.658;2023-03-14T09:31:36;97446.50;;;16.27;53.09
74798;BME280;63326;45.088;7.658;2023-03-14T09:34:03;97473.53;;;16.83;51.10
74798;BME280;63326;45.088;7.658;2023-03-14T09:36:30;97468.28;;;17.42;49.90
74798;BME280;63326;45.088;7.658;2023-03-14T09:38:57;97480.97;;;18.22;47.71
74798;BME280;63326;45.088;7.658;2023-03-14T09:41:27;97472.81;;;19.07;45.88
74798;BME280;63326;45.088;7.658;2023-03-14T09:44:03;97466.50;;;18.96;44.99
74798;BME280;63326;45.088;7.658;2023-03-14T09:46:33;97459.09;;;18.76;44.91
74798;BME280;63326;45.088;7.658;2023-03-14T09:49:01;97473.13;;;19.20;44.00
74798;BME280;63326;45.088;7.658;2023-03-14T09:51:29;97464.88;;;19.88;42.37
74798;BME280;63326;45.088;7.658;2023-03-14T09:53:55;97459.72;;;20.37;41.72
74798;BME280;63326;45.088;7.658;2023-03-14T09:56:28;97449.88;;;20.62;39.93
74798;BME280;63326;45.088;7.658;2023-03-14T09:58:58;97467.69;;;21.19;37.93
74798;BME280;63326;45.088;7.658;2023-03-14T10:01:29;97454.09;;;21.09;37.17
74798;BME280;63326;45.088;7.658;2023-03-14T10:04:05;97469.81;;;21.32;37.12
74798;BME280;63326;45.088;7.658;2023-03-14T10:06:33;97450.78;;;21.17;36.92
74798;BME280;63326;45.088;7.658;2023-03-14T10:09:02;97469.59;;;21.13;36.43
74798;BME280;63326;45.088;7.658;2023-03-14T10:11:29;97466.25;;;20.52;36.89
74798;BME280;63326;45.088;7.658;2023-03-14T10:14:08;97476.75;;;20.99;36.65
74798;BME280;63326;45.088;7.658;2023-03-14T10:16:37;97467.06;;;20.57;37.70
74798;BME280;63326;45.088;7.658;2023-03-14T10:19:10;97481.75;;;21.46;37.00
74798;BME280;63326;45.088;7.658;2023-03-14T10:21:41;97457.13;;;21.62;36.31
74798;BME280;63326;45.088;7.658;2023-03-14T10:24:26;97469.97;;;21.56;35.82
74798;BME280;63326;45.088;7.658;2023-03-14T10:26:55;97472.06;;;22.42;35.26
74798;BME280;63326;45.088;7.658;2023-03-14T10:29:24;97449.13;;;23.20;33.81
74798;BME280;63326;45.088;7.658;2023-03-14T10:31:52;97469.50;;;23.28;33.17
74798;BME280;63326;45.088;7.658;2023-03-14T10:34:26;97450.38;;;23.28;32.57
74798;BME280;63326;45.088;7.658;2023-03-14T10:36:54;97463.75;;;23.72;32.19
74798;BME280;63326;45.088;7.658;2023-03-14T10:39:27;97449.03;;;23.68;32.02
74798;BME280;63326;45.088;7.658;2023-03-14T10:42:03;97465.66;;;23.29;33.28
74798;BME280;63326;45.088;7.658;2023-03-14T10:44:31;97456.25;;;22.05;33.36
74798;BME280;63326;45.088;7.658;2023-03-14T10:47:01;97468.13;;;21.85;34.67
74798;BME280;63326;45.088;7.658;2023-03-14T10:49:33;97469.16;;;20.81;36.49
74798;BME280;63326;45.088;7.658;2023-03-14T10:54:40;97429.72;;;19.51;39.36
74798;BME280;63326;45.088;7.658;2023-03-14T10:57:06;97442.78;;;19.54;39.60
74798;BME280;63326;45.088;7.658;2023-03-14T10:59:36;97471.13;;;19.68;40.43
74798;BME280;63326;45.088;7.658;2023-03-14T11:08:09;97454.28;;;18.98;42.82
74798;BME280;63326;45.088;7.658;2023-03-14T11:10:39;97446.44;;;19.02;42.08
74798;BME280;63326;45.088;7.658;2023-03-14T11:16:06;97448.28;;;19.90;40.25
74798;BME280;63326;45.088;7.658;2023-03-14T11:24:33;97432.69;;;20.71;37.69
74798;BME280;63326;45.088;7.658;2023-03-14T11:30:13;97435.25;;;21.27;37.34
74798;BME280;63326;45.088;7.658;2023-03-14T11:35:38;97429.88;;;21.56;35.92
74798;BME280;63326;45.088;7.658;2023-03-14T11:40:43;97403.00;;;21.40;36.05
74798;BME280;63326;45.088;7.658;2023-03-14T11:43:20;97391.34;;;20.64;37.23
74798;BME280;63326;45.088;7.658;2023-03-14T11:46:07;97405.28;;;20.02;37.78
74798;BME280;63326;45.088;7.658;2023-03-14T11:51:12;97406.41;;;19.96;38.83
74798;BME280;63326;45.088;7.658;2023-03-14T11:53:57;97396.88;;;20.08;38.18
74798;BME280;63326;45.088;7.658;2023-03-14T11:56:37;97375.91;;;20.09;38.29
74798;BME280;63326;45.088;7.658;2023-03-14T11:59:14;97388.47;;;19.74;38.67
74798;BME280;63326;45.088;7.658;2023-03-14T12:01:52;97340.53;;;20.24;37.30
74798;BME280;63326;45.088;7.658;2023-03-14T12:07:03;97358.47;;;21.00;36.29
74798;BME280;63326;45.088;7.658;2023-03-14T12:09:33;97362.97;;;20.76;36.18
74798;BME280;63326;45.088;7.658;2023-03-14T12:12:03;97364.34;;;21.67;35.22
74798;BME280;63326;45.088;7.658;2023-03-14T12:14:32;97324.19;;;22.01;34.71
74798;BME280;63326;45.088;7.658;2023-03-14T12:17:20;97369.09;;;21.85;34.45
74798;BME280;63326;45.088;7.658;2023-03-14T12:19:59;97367.72;;;21.53;35.47
74798;BME280;63326;45.088;7.658;2023-03-14T12:22:33;97350.88;;;21.80;35.58
74798;BME280;63326;45.088;7.658;2023-03-14T12:25:22;97347.66;;;22.02;35.28
74798;BME280;63326;45.088;7.658;2023-03-14T12:35:45;97352.47;;;21.03;36.28
74798;BME280;63326;45.088;7.658;2023-03-14T12:41:15;97339.63;;;21.09;36.89
74798;BME280;63326;45.088;7.658;2023-03-14T12:43:43;97296.78;;;20.75;37.44
74798;BME280;63326;45.088;7.658;2023-03-14T12:46:27;97334.97;;;21.59;35.62
74798;BME280;63326;45.088;7.658;2023-03-14T12:51:40;97301.72;;;21.12;37.05
74798;BME280;63326;45.088;7.658;2023-03-14T13:01:59;97322.66;;;21.27;36.43
74798;BME280;63326;45.088;7.658;2023-03-14T13:04:44;97292.63;;;20.23;38.54
74798;BME280;63326;45.088;7.658;2023-03-14T13:07:35;97321.50;;;20.09;38.50
74798;BME280;63326;45.088;7.658;2023-03-14T13:15:37;97301.09;;;20.86;37.22
74798;BME280;63326;45.088;7.658;2023-03-14T13:18:11;97300.84;;;21.22;37.09
74798;BME280;63326;45.088;7.658;2023-03-14T13:20:45;97298.19;;;21.12;36.95
74798;BME280;63326;45.088;7.658;2023-03-14T13:23:30;97291.28;;;21.24;36.38
74798;BME280;63326;45.088;7.658;2023-03-14T13:25:57;97258.66;;;20.75;36.75
74798;BME280;63326;45.088;7.658;2023-03-14T13:28:26;97294.88;;;21.15;36.64
74798;BME280;63326;45.088;7.658;2023-03-14T13:31:00;97294.34;;;21.18;36.64
74798;BME280;63326;45.088;7.658;2023-03-14T13:33:28;97287.25;;;21.17;37.11
74798;BME280;63326;45.088;7.658;2023-03-14T13:38:24;97303.81;;;20.86;36.77
74798;BME280;63326;45.088;7.658;2023-03-14T13:40:54;97294.94;;;21.05;36.75
74798;BME280;63326;45.088;7.658;2023-03-14T13:43:29;97278.88;;;21.47;35.99
74798;BME280;63326;45.088;7.658;2023-03-14T13:46:22;97305.53;;;21.11;37.55
74798;BME280;63326;45.088;7.658;2023-03-14T13:48:52;97275.34;;;19.63;40.84
74798;BME280;63326;45.088;7.658;2023-03-14T13:51:21;97270.69;;;18.82;43.18
74798;BME280;63326;45.088;7.658;2023-03-14T13:53:54;97282.03;;;18.06;45.87
74798;BME280;63326;45.088;7.658;2023-03-14T13:56:22;97274.03;;;17.79;46.18
74798;BME280;63326;45.088;7.658;2023-03-14T13:58:50;97303.66;;;17.96;46.78
74798;BME280;63326;45.088;7.658;2023-03-14T14:01:28;97309.41;;;17.63;47.69
74798;BME280;63326;45.088;7.658;2023-03-14T14:04:02;97299.56;;;16.65;50.88
74798;BME280;63326;45.088;7.658;2023-03-14T14:06:34;97293.28;;;17.14;50.39
74798;BME280;63326;45.088;7.658;2023-03-14T14:09:15;97306.47;;;17.05;50.38
74798;BME280;63326;45.088;7.658;2023-03-14T14:14:40;97270.94;;;16.69;50.80
74798;BME280;63326;45.088;7.658;2023-03-14T14:17:15;97253.47;;;16.82;50.08
74798;BME280;63326;45.088;7.658;2023-03-14T14:19:45;97285.59;;;16.30;51.41
74798;BME280;63326;45.088;7.658;2023-03-14T14:22:12;97236.75;;;16.36;50.69
74798;BME280;63326;45.088;7.658;2023-03-14T14:24:40;97297.41;;;16.89;49.84
74798;BME280;63326;45.088;7.658;2023-03-14T14:27:26;97315.53;;;16.89;50.28
74798;BME280;63326;45.088;7.658;2023-03-14T14:30:06;97318.25;;;16.45;51.72
74798;BME280;63326;45.088;7.658;2023-03-14T14:32:51;97321.13;;;16.60;51.60
74798;BME280;63326;45.088;7.658;2023-03-14T14:35:25;97323.28;;;16.58;51.69
74798;BME280;63326;45.088;7.658;2023-03-14T14:37:52;97326.03;;;16.85;51.13
74798;BME280;63326;45.088;7.658;2023-03-14T14:40:21;97327.72;;;16.91;50.58